createdAt,value
2019-01-28T00:00:35.273Z,27.37
2019-01-28T00:01:40.233Z,24.40
2019-01-28T00:02:43.689Z,23.30
2019-01-28T00:03:46.969Z,28.67
2019-01-28T00:04:50.251Z,35.08
2019-01-28T00:05:53.535Z,27.30
2019-01-28T00:06:56.846Z,27.73
2019-01-28T00:08:00.132Z,28.80
2019-01-28T00:09:04.667Z,50.17
2019-01-28T00:10:08.431Z,50.12
2019-01-28T00:11:11.714Z,42.38
2019-01-28T00:12:15.026Z,36.13
2019-01-28T00:13:18.385Z,31.48
2019-01-28T00:14:22.024Z,28.15
2019-01-28T00:15:25.383Z,28.23
2019-01-28T00:16:28.672Z,27.87
2019-01-28T00:17:32.064Z,28.27
2019-01-28T00:18:35.347Z,27.05
2019-01-28T00:19:38.633Z,28.35
2019-01-28T00:20:41.905Z,27.65
2019-01-28T00:21:45.257Z,28.83
2019-01-28T00:22:48.576Z,26.93
2019-01-28T00:23:51.965Z,26.40
2019-01-28T00:24:55.312Z,26.52
2019-01-28T00:25:58.601Z,25.05
2019-01-28T00:27:01.888Z,28.90
2019-01-28T00:28:05.202Z,31.93
2019-01-28T00:29:08.477Z,37.80
2019-01-28T00:30:11.904Z,34.10
2019-01-28T00:31:15.188Z,34.78
2019-01-28T00:32:18.472Z,30.32
2019-01-28T00:33:21.759Z,29.70
2019-01-28T00:34:25.046Z,28.70
2019-01-28T00:35:28.337Z,27.60
2019-01-28T00:36:31.685Z,25.72
2019-01-28T00:37:34.980Z,25.45
2019-01-28T00:38:38.305Z,26.73
2019-01-28T00:39:41.589Z,26.65
2019-01-28T00:40:44.879Z,26.73
2019-01-28T00:41:48.166Z,28.05
2019-01-28T00:42:51.479Z,26.75
2019-01-28T00:43:54.799Z,24.52
2019-01-28T00:44:58.084Z,25.60
2019-01-28T00:46:01.369Z,24.47
2019-01-28T00:47:04.950Z,24.90
2019-01-28T00:48:08.231Z,25.65
2019-01-28T00:49:11.539Z,25.65
2019-01-28T00:50:14.831Z,25.02
2019-01-28T00:51:18.102Z,25.72
2019-01-28T00:52:21.385Z,26.50
2019-01-28T00:53:24.672Z,27.30
2019-01-28T00:54:27.978Z,29.77
2019-01-28T00:55:31.410Z,28.73
2019-01-28T00:56:34.688Z,28.47
2019-01-28T00:57:38.041Z,28.50
2019-01-28T00:58:41.317Z,29.50
2019-01-28T00:59:44.706Z,27.85
2019-01-28T01:00:47.981Z,29.75
2019-01-28T01:01:51.944Z,29.42
2019-01-28T01:02:55.612Z,30.40
2019-01-28T01:03:58.891Z,29.40
2019-01-28T01:05:02.542Z,31.05
2019-01-28T01:06:05.823Z,31.07
2019-01-28T01:07:09.111Z,31.10
2019-01-28T01:08:12.397Z,30.72
2019-01-28T01:09:15.823Z,33.05
2019-01-28T01:10:19.136Z,29.57
2019-01-28T01:11:22.419Z,31.12
2019-01-28T01:12:25.706Z,31.73
2019-01-28T01:13:29.385Z,31.80
2019-01-28T01:14:32.666Z,30.90
2019-01-28T01:15:35.987Z,30.52
2019-01-28T01:16:39.259Z,30.50
2019-01-28T01:17:42.551Z,30.37
2019-01-28T01:18:45.833Z,31.42
2019-01-28T01:19:49.122Z,32.42
2019-01-28T01:20:52.865Z,33.00
2019-01-28T01:21:56.144Z,32.28
2019-01-28T01:22:59.427Z,31.50
2019-01-28T01:24:02.717Z,34.65
2019-01-28T01:25:06.921Z,35.70
2019-01-28T01:26:10.238Z,31.17
2019-01-28T01:27:13.585Z,33.00
2019-01-28T01:28:16.939Z,30.27
2019-01-28T01:29:20.226Z,32.35
2019-01-28T01:30:23.512Z,31.40
2019-01-28T01:31:27.187Z,32.08
2019-01-28T01:32:30.469Z,32.98
2019-01-28T01:33:34.132Z,31.85
2019-01-28T01:34:37.416Z,33.83
2019-01-28T01:35:40.709Z,35.90
2019-01-28T01:36:44.008Z,39.40
2019-01-28T01:37:47.676Z,37.20
2019-01-28T01:38:50.952Z,37.42
2019-01-28T01:39:54.253Z,37.42
2019-01-28T01:40:57.568Z,38.33
2019-01-28T01:42:00.892Z,37.80
2019-01-28T01:43:04.173Z,37.50
2019-01-28T01:44:07.523Z,36.00
2019-01-28T01:45:13.311Z,38.53
2019-01-28T01:46:16.666Z,37.85
2019-01-28T01:47:20.056Z,36.93
2019-01-28T01:48:23.346Z,38.83
2019-01-28T01:49:26.621Z,37.73
2019-01-28T01:50:30.026Z,36.77
2019-01-28T01:51:33.312Z,36.75
2019-01-28T01:52:36.633Z,34.70
2019-01-28T01:53:39.919Z,33.80
2019-01-28T01:54:43.218Z,35.20
2019-01-28T01:55:46.544Z,36.95
2019-01-28T01:56:49.820Z,34.98
2019-01-28T01:57:53.112Z,36.15
2019-01-28T01:58:56.395Z,37.17
2019-01-28T01:59:59.672Z,35.33
2019-01-28T02:01:03.028Z,37.85
2019-01-28T02:02:06.315Z,37.38
2019-01-28T02:03:10.061Z,37.25
2019-01-28T02:04:13.797Z,36.48
2019-01-28T02:05:17.079Z,36.10
2019-01-28T02:06:20.362Z,35.25
2019-01-28T02:07:23.648Z,34.67
2019-01-28T02:08:27.021Z,33.45
2019-01-28T02:09:30.296Z,33.98
2019-01-28T02:10:33.581Z,34.05
2019-01-28T02:11:37.026Z,34.78
2019-01-28T02:12:40.300Z,35.43
2019-01-28T02:13:43.623Z,35.58
2019-01-28T02:14:46.908Z,34.13
2019-01-28T02:15:50.206Z,32.33
2019-01-28T02:16:53.489Z,31.82
2019-01-28T02:17:56.776Z,30.27
2019-01-28T02:19:00.093Z,31.68
2019-01-28T02:20:04.421Z,32.30
2019-01-28T02:21:07.695Z,30.15
2019-01-28T02:22:10.983Z,31.95
2019-01-28T02:23:14.265Z,29.92
2019-01-28T02:24:17.647Z,30.45
2019-01-28T02:25:20.923Z,31.87
2019-01-28T02:26:24.208Z,29.12
2019-01-28T02:27:27.569Z,31.23
2019-01-28T02:28:30.845Z,30.15
2019-01-28T02:29:34.237Z,30.37
2019-01-28T02:30:37.525Z,29.02
2019-01-28T02:31:40.808Z,30.70
2019-01-28T02:32:44.156Z,29.60
2019-01-28T02:33:47.440Z,31.50
2019-01-28T02:34:50.765Z,32.25
2019-01-28T02:35:54.050Z,31.45
2019-01-28T02:36:57.330Z,30.70
2019-01-28T02:38:00.630Z,33.13
2019-01-28T02:39:05.432Z,31.37
2019-01-28T02:40:14.471Z,32.63
2019-01-28T02:41:17.837Z,29.98
2019-01-28T02:42:21.122Z,29.05
2019-01-28T02:43:24.406Z,27.93
2019-01-28T02:44:27.686Z,25.30
2019-01-28T02:45:31.076Z,25.08
2019-01-28T02:46:34.361Z,23.87
2019-01-28T02:47:37.644Z,23.92
2019-01-28T02:48:41.031Z,23.98
2019-01-28T02:49:45.106Z,20.12
2019-01-28T02:50:48.427Z,21.73
2019-01-28T02:51:51.733Z,22.00
2019-01-28T02:52:55.024Z,21.85
2019-01-28T02:53:58.633Z,22.85
2019-01-28T02:55:02.218Z,24.07
2019-01-28T02:56:05.527Z,23.47
2019-01-28T02:57:08.835Z,27.70
2019-01-28T02:58:12.109Z,28.57
2019-01-28T02:59:15.391Z,26.60
2019-01-28T03:00:22.659Z,27.02
2019-01-28T03:01:25.999Z,25.17
2019-01-28T03:02:29.281Z,27.45
2019-01-28T03:03:32.565Z,27.20
2019-01-28T03:04:35.920Z,25.17
2019-01-28T03:05:39.209Z,25.57
2019-01-28T03:06:42.532Z,24.98
2019-01-28T03:07:45.831Z,24.98
2019-01-28T03:08:49.155Z,22.60
2019-01-28T03:09:52.800Z,22.52
2019-01-28T03:10:56.162Z,22.37
2019-01-28T03:11:59.962Z,22.67
2019-01-28T03:13:03.243Z,21.90
2019-01-28T03:14:06.533Z,23.47
2019-01-28T03:15:10.496Z,21.80
2019-01-28T03:16:13.763Z,22.87
2019-01-28T03:17:17.079Z,23.57
2019-01-28T03:18:20.356Z,23.65
2019-01-28T03:19:23.663Z,22.77
2019-01-28T03:20:26.963Z,22.85
2019-01-28T03:21:30.246Z,23.32
2019-01-28T03:22:33.559Z,22.85
2019-01-28T03:23:36.908Z,23.90
2019-01-28T03:24:40.194Z,24.25
2019-01-28T03:25:43.477Z,25.55
2019-01-28T03:26:46.766Z,25.08
2019-01-28T03:27:50.074Z,25.25
2019-01-28T03:28:53.356Z,26.00
2019-01-28T03:29:56.639Z,26.55
2019-01-28T03:30:59.927Z,27.15
2019-01-28T03:32:03.213Z,26.30
2019-01-28T03:33:06.533Z,30.80
2019-01-28T03:34:09.809Z,30.20
2019-01-28T03:35:13.133Z,29.10
2019-01-28T03:36:16.416Z,29.18
2019-01-28T03:37:19.693Z,30.27
2019-01-28T03:38:23.402Z,32.30
2019-01-28T03:39:26.682Z,30.70
2019-01-28T03:40:30.284Z,33.23
2019-01-28T03:41:33.569Z,32.65
2019-01-28T03:42:36.847Z,31.07
2019-01-28T03:43:40.170Z,29.50
2019-01-28T03:44:43.451Z,28.38
2019-01-28T03:45:46.731Z,29.23
2019-01-28T03:46:50.153Z,28.25
2019-01-28T03:47:53.424Z,29.92
2019-01-28T03:48:56.741Z,31.45
2019-01-28T03:50:00.024Z,30.57
2019-01-28T03:51:03.310Z,31.17
2019-01-28T03:52:07.963Z,30.30
2019-01-28T03:53:12.607Z,29.60
2019-01-28T03:54:15.924Z,29.85
2019-01-28T03:55:19.455Z,30.55
2019-01-28T03:56:22.732Z,29.02
2019-01-28T03:57:26.015Z,29.18
2019-01-28T03:58:29.436Z,31.60
2019-01-28T03:59:32.849Z,30.60
2019-01-28T04:00:36.135Z,28.60
2019-01-28T04:01:39.754Z,29.57
2019-01-28T04:02:43.035Z,30.50
2019-01-28T04:03:46.317Z,30.57
2019-01-28T04:04:49.628Z,31.45
2019-01-28T04:05:52.922Z,29.75
2019-01-28T04:06:56.202Z,30.30
2019-01-28T04:07:59.496Z,30.00
2019-01-28T04:09:04.423Z,29.40
2019-01-28T04:10:11.074Z,27.70
2019-01-28T04:11:14.717Z,27.22
2019-01-28T04:12:18.018Z,30.05
2019-01-28T04:13:21.283Z,31.80
2019-01-28T04:14:24.569Z,30.97
2019-01-28T04:15:27.893Z,30.45
2019-01-28T04:16:31.551Z,31.07
2019-01-28T04:17:34.836Z,30.95
2019-01-28T04:18:38.123Z,30.68
2019-01-28T04:19:41.747Z,29.85
2019-01-28T04:20:45.062Z,30.75
2019-01-28T04:21:48.349Z,29.10
2019-01-28T04:22:51.630Z,30.80
2019-01-28T04:23:55.289Z,29.52
2019-01-28T04:24:58.716Z,29.75
2019-01-28T04:26:02.024Z,27.48
2019-01-28T04:27:05.304Z,28.05
2019-01-28T04:28:08.586Z,29.05
2019-01-28T04:29:11.868Z,30.88
2019-01-28T04:30:20.122Z,31.48
2019-01-28T04:31:23.426Z,30.97
2019-01-28T04:32:26.715Z,35.48
2019-01-28T04:33:29.993Z,38.92
2019-01-28T04:34:33.346Z,43.05
2019-01-28T04:35:36.629Z,46.45
2019-01-28T04:36:40.010Z,44.90
2019-01-28T04:37:43.403Z,40.58
2019-01-28T04:38:46.702Z,47.00
2019-01-28T04:39:50.377Z,44.03
2019-01-28T04:40:53.660Z,35.03
2019-01-28T04:41:57.119Z,32.73
2019-01-28T04:43:00.719Z,33.58
2019-01-28T04:44:04.009Z,33.58
2019-01-28T04:45:10.690Z,36.10
2019-01-28T04:46:14.011Z,33.33
2019-01-28T04:47:17.333Z,33.75
2019-01-28T04:48:20.604Z,39.20
2019-01-28T04:49:23.888Z,33.55
2019-01-28T04:50:27.170Z,34.50
2019-01-28T04:51:30.820Z,35.95
2019-01-28T04:52:34.197Z,37.48
2019-01-28T04:53:37.567Z,37.98
2019-01-28T04:54:40.891Z,39.38
2019-01-28T04:55:44.174Z,43.42
2019-01-28T04:56:47.483Z,44.05
2019-01-28T04:57:50.770Z,42.20
2019-01-28T04:58:54.351Z,41.08
2019-01-28T04:59:57.871Z,43.48
2019-01-28T05:01:01.178Z,41.68
2019-01-28T05:02:04.458Z,42.38
2019-01-28T05:03:07.745Z,43.42
2019-01-28T05:04:11.029Z,40.92
2019-01-28T05:05:14.715Z,41.55
2019-01-28T05:06:18.077Z,43.40
2019-01-28T05:07:21.427Z,46.00
2019-01-28T05:08:24.707Z,42.95
2019-01-28T05:09:27.999Z,45.08
2019-01-28T05:10:31.316Z,44.50
2019-01-28T05:11:34.666Z,44.75
2019-01-28T05:12:37.973Z,46.15
2019-01-28T05:13:41.267Z,47.08
2019-01-28T05:14:44.847Z,47.00
2019-01-28T05:15:48.200Z,46.77
2019-01-28T05:16:51.489Z,44.83
2019-01-28T05:17:54.776Z,43.85
2019-01-28T05:18:58.064Z,44.50
2019-01-28T05:20:01.420Z,46.63
2019-01-28T05:21:04.772Z,44.70
2019-01-28T05:22:08.119Z,46.73
2019-01-28T05:23:11.423Z,47.93
2019-01-28T05:24:14.706Z,45.55
2019-01-28T05:25:18.239Z,50.33
2019-01-28T05:26:21.920Z,49.83
2019-01-28T05:27:25.206Z,52.17
2019-01-28T05:28:28.525Z,55.17
2019-01-28T05:29:31.874Z,53.00
2019-01-28T05:30:35.381Z,54.18
2019-01-28T05:31:38.738Z,59.10
2019-01-28T05:32:42.443Z,52.40
2019-01-28T05:33:45.862Z,51.90
2019-01-28T05:34:49.138Z,52.40
2019-01-28T05:35:52.458Z,55.20
2019-01-28T05:36:55.734Z,55.23
2019-01-28T05:37:59.101Z,61.68
2019-01-28T05:39:02.486Z,57.38
2019-01-28T05:40:14.694Z,56.20
2019-01-28T05:41:18.048Z,56.23
2019-01-28T05:42:21.346Z,58.60
2019-01-28T05:43:24.670Z,62.27
2019-01-28T05:44:27.998Z,63.35
2019-01-28T05:45:31.281Z,63.08
2019-01-28T05:46:34.565Z,66.37
2019-01-28T05:47:37.859Z,63.10
2019-01-28T05:48:41.217Z,64.15
2019-01-28T05:49:44.547Z,65.60
2019-01-28T05:50:47.906Z,61.48
2019-01-28T05:51:51.193Z,59.48
2019-01-28T05:52:54.496Z,61.85
2019-01-28T05:53:58.184Z,62.35
2019-01-28T05:55:01.503Z,59.42
2019-01-28T05:56:04.792Z,58.30
2019-01-28T05:57:08.781Z,59.50
2019-01-28T05:58:12.149Z,60.92
2019-01-28T05:59:15.445Z,64.07
2019-01-28T06:00:21.263Z,61.65
2019-01-28T06:01:24.911Z,64.60
2019-01-28T06:02:28.189Z,64.03
2019-01-28T06:03:31.470Z,61.13
2019-01-28T06:04:34.758Z,64.53
2019-01-28T06:05:38.090Z,65.05
2019-01-28T06:06:41.375Z,62.48
2019-01-28T06:07:44.737Z,63.83
2019-01-28T06:08:48.021Z,62.85
2019-01-28T06:09:51.314Z,62.98
2019-01-28T06:10:54.641Z,64.17
2019-01-28T06:11:57.922Z,63.40
2019-01-28T06:13:01.282Z,62.43
2019-01-28T06:14:05.003Z,62.73
2019-01-28T06:15:11.607Z,64.67
2019-01-28T06:16:15.030Z,65.92
2019-01-28T06:17:18.316Z,64.03
2019-01-28T06:18:21.601Z,65.00
2019-01-28T06:19:24.885Z,66.90
2019-01-28T06:20:28.488Z,65.22
2019-01-28T06:21:31.816Z,68.67
2019-01-28T06:22:35.102Z,68.65
2019-01-28T06:23:38.748Z,71.72
2019-01-28T06:24:42.115Z,69.32
2019-01-28T06:25:45.415Z,67.22
2019-01-28T06:26:48.742Z,67.08
2019-01-28T06:27:52.027Z,58.05
2019-01-28T06:28:55.335Z,60.92
2019-01-28T06:29:58.635Z,63.13
2019-01-28T06:31:01.923Z,70.00
2019-01-28T06:32:05.222Z,70.42
2019-01-28T06:33:08.521Z,67.35
2019-01-28T06:34:11.809Z,66.50
2019-01-28T06:35:15.119Z,67.95
2019-01-28T06:36:18.845Z,66.67
2019-01-28T06:37:22.165Z,70.57
2019-01-28T06:38:25.539Z,67.82
2019-01-28T06:39:28.833Z,68.10
2019-01-28T06:40:33.870Z,66.17
2019-01-28T06:41:37.230Z,67.55
2019-01-28T06:42:40.708Z,68.87
2019-01-28T06:43:44.040Z,68.25
2019-01-28T06:44:47.296Z,68.10
2019-01-28T06:45:50.586Z,68.83
2019-01-28T06:46:53.879Z,65.57
2019-01-28T06:47:57.202Z,69.17
2019-01-28T06:49:00.495Z,65.15
2019-01-28T06:50:06.138Z,65.83
2019-01-28T06:51:10.438Z,64.72
2019-01-28T06:52:13.794Z,63.98
2019-01-28T06:53:17.147Z,64.42
2019-01-28T06:54:20.506Z,63.87
2019-01-28T06:55:23.807Z,66.47
2019-01-28T06:56:27.407Z,62.15
2019-01-28T06:57:30.757Z,61.58
2019-01-28T06:58:34.380Z,60.38
2019-01-28T06:59:37.672Z,58.73
2019-01-28T07:00:41.034Z,58.17
2019-01-28T07:01:44.388Z,59.55
2019-01-28T07:02:47.751Z,59.15
2019-01-28T07:03:51.083Z,64.90
2019-01-28T07:04:54.369Z,78.90
2019-01-28T07:05:57.976Z,81.78
2019-01-28T07:07:01.270Z,94.05
2019-01-28T07:08:04.566Z,102.75
2019-01-28T07:09:09.134Z,105.72
2019-01-28T07:10:12.589Z,120.62
2019-01-28T07:11:15.896Z,109.78
2019-01-28T07:12:19.257Z,121.92
2019-01-28T07:13:22.642Z,139.72
2019-01-28T07:14:25.975Z,148.38
2019-01-28T07:15:29.278Z,147.82
2019-01-28T07:16:33.503Z,168.13
2019-01-28T07:17:36.841Z,171.55
2019-01-28T07:18:40.147Z,177.55
2019-01-28T07:19:43.474Z,167.53
2019-01-28T07:20:46.840Z,155.12
2019-01-28T07:21:50.208Z,158.68
2019-01-28T07:22:53.580Z,146.75
2019-01-28T07:23:57.020Z,148.50
2019-01-28T07:25:00.360Z,116.95
2019-01-28T07:26:04.053Z,129.32
2019-01-28T07:27:07.492Z,134.03
2019-01-28T07:28:10.788Z,64.07
2019-01-28T07:29:14.518Z,119.28
2019-01-28T07:30:24.471Z,119.45
2019-01-28T07:31:27.766Z,120.35
2019-01-28T07:32:31.064Z,107.78
2019-01-28T07:33:34.356Z,104.23
2019-01-28T07:34:37.798Z,102.02
2019-01-28T07:35:41.272Z,118.40
2019-01-28T07:36:44.617Z,115.40
2019-01-28T07:37:47.923Z,92.60
2019-01-28T07:38:51.289Z,92.42
2019-01-28T07:39:54.593Z,87.62
2019-01-28T07:40:57.939Z,85.95
2019-01-28T07:42:01.211Z,82.55
2019-01-28T07:43:04.587Z,83.60
2019-01-28T07:44:07.863Z,78.62
2019-01-28T07:45:20.648Z,69.42
2019-01-28T07:46:23.975Z,64.42
2019-01-28T07:47:27.340Z,60.15
2019-01-28T07:48:30.707Z,46.25
2019-01-28T07:49:33.999Z,33.73
2019-01-28T07:50:37.300Z,30.12
2019-01-28T07:51:40.706Z,49.18
2019-01-28T07:52:43.995Z,45.08
2019-01-28T07:53:47.384Z,37.33
2019-01-28T07:54:50.672Z,28.85
2019-01-28T07:55:53.979Z,28.50
2019-01-28T07:56:57.304Z,24.47
2019-01-28T07:58:00.603Z,18.30
2019-01-28T07:59:03.969Z,15.85
2019-01-28T08:00:25.216Z,16.33
2019-01-28T08:01:28.573Z,18.70
2019-01-28T08:02:31.964Z,22.95
2019-01-28T08:03:35.251Z,18.83
2019-01-28T08:04:38.533Z,16.27
2019-01-28T08:05:42.248Z,15.20
2019-01-28T08:06:45.566Z,22.77
2019-01-28T08:07:48.864Z,20.90
2019-01-28T08:08:52.220Z,17.95
2019-01-28T08:09:55.521Z,17.37
2019-01-28T08:10:58.797Z,16.00
2019-01-28T08:12:02.089Z,17.13
2019-01-28T08:13:06.087Z,22.00
2019-01-28T08:14:09.366Z,16.10
2019-01-28T08:15:27.241Z,16.00
2019-01-28T08:16:30.526Z,19.13
2019-01-28T08:17:34.258Z,19.73
2019-01-28T08:18:37.560Z,26.03
2019-01-28T08:19:40.839Z,18.23
2019-01-28T08:20:44.240Z,17.47
2019-01-28T08:21:47.524Z,26.20
2019-01-28T08:22:50.873Z,18.43
2019-01-28T08:23:54.546Z,18.03
2019-01-28T08:24:57.830Z,20.77
2019-01-28T08:26:01.158Z,17.90
2019-01-28T08:27:04.541Z,16.17
2019-01-28T08:28:07.835Z,14.83
2019-01-28T08:29:11.111Z,14.07
2019-01-28T08:30:17.805Z,16.43
2019-01-28T08:31:21.137Z,13.60
2019-01-28T08:32:24.422Z,16.33
2019-01-28T08:33:27.716Z,17.03
2019-01-28T08:34:31.083Z,21.90
2019-01-28T08:35:34.826Z,16.27
2019-01-28T08:36:38.141Z,17.63
2019-01-28T08:37:41.498Z,16.73
2019-01-28T08:38:44.835Z,17.27
2019-01-28T08:39:48.123Z,17.13
2019-01-28T08:40:51.405Z,14.30
2019-01-28T08:41:54.769Z,14.07
2019-01-28T08:42:58.330Z,13.47
2019-01-28T08:44:01.691Z,13.07
2019-01-28T08:45:10.608Z,13.30
2019-01-28T08:46:13.889Z,14.37
2019-01-28T08:47:17.278Z,12.90
2019-01-28T08:48:20.627Z,13.97
2019-01-28T08:49:23.902Z,13.90
2019-01-28T08:50:28.935Z,14.20
2019-01-28T08:51:32.292Z,12.97
2019-01-28T08:52:35.618Z,14.83
2019-01-28T08:53:38.915Z,12.97
2019-01-28T08:54:42.567Z,12.63
2019-01-28T08:55:45.849Z,12.50
2019-01-28T08:56:49.130Z,12.40
2019-01-28T08:57:52.536Z,12.43
2019-01-28T08:58:56.026Z,11.90
2019-01-28T08:59:59.342Z,15.07
2019-01-28T09:01:02.687Z,12.00
2019-01-28T09:02:06.255Z,13.30
2019-01-28T09:03:09.578Z,12.40
2019-01-28T09:04:12.857Z,14.20
2019-01-28T09:05:17.288Z,13.37
2019-01-28T09:06:20.578Z,13.37
2019-01-28T09:07:23.858Z,14.67
2019-01-28T09:08:27.184Z,12.33
2019-01-28T09:09:30.479Z,12.03
2019-01-28T09:10:33.837Z,12.70
2019-01-28T09:11:37.246Z,12.87
2019-01-28T09:12:42.119Z,13.67
2019-01-28T09:13:45.443Z,12.87
2019-01-28T09:14:48.857Z,13.23
2019-01-28T09:15:52.211Z,13.47
2019-01-28T09:16:55.633Z,13.97
2019-01-28T09:17:58.988Z,13.43
2019-01-28T09:19:02.261Z,13.23
2019-01-28T09:20:08.818Z,12.97
2019-01-28T09:21:12.183Z,11.63
2019-01-28T09:22:15.468Z,13.30
2019-01-28T09:23:18.810Z,10.67
2019-01-28T09:24:22.137Z,13.90
2019-01-28T09:25:25.500Z,20.40
2019-01-28T09:26:28.774Z,16.33
2019-01-28T09:27:32.061Z,20.10
2019-01-28T09:28:35.439Z,15.57
2019-01-28T09:29:38.845Z,16.73
2019-01-28T09:30:42.121Z,17.40
2019-01-28T09:31:45.509Z,14.73
2019-01-28T09:32:48.791Z,14.30
2019-01-28T09:33:52.073Z,14.20
2019-01-28T09:34:55.519Z,11.20
2019-01-28T09:35:58.861Z,15.33
2019-01-28T09:37:02.577Z,29.93
2019-01-28T09:38:05.868Z,16.07
2019-01-28T09:39:09.158Z,13.33
2019-01-28T09:40:15.521Z,11.73
2019-01-28T09:41:18.803Z,10.40
2019-01-28T09:42:22.168Z,11.60
2019-01-28T09:43:26.577Z,10.50
2019-01-28T09:44:30.048Z,10.70
2019-01-28T09:45:36.071Z,11.50
2019-01-28T09:46:39.362Z,10.80
2019-01-28T09:47:42.663Z,10.60
2019-01-28T09:48:47.382Z,10.73
2019-01-28T09:49:50.615Z,9.17
2019-01-28T09:50:54.015Z,10.97
2019-01-28T09:51:57.302Z,11.13
2019-01-28T09:53:00.673Z,8.60
2019-01-28T09:54:04.043Z,10.77
2019-01-28T09:55:10.766Z,10.27
2019-01-28T09:56:14.659Z,13.80
2019-01-28T09:57:17.969Z,11.60
2019-01-28T09:58:21.333Z,11.83
2019-01-28T09:59:24.682Z,13.80
2019-01-28T10:00:33.786Z,11.20
2019-01-28T10:01:37.178Z,9.30
2019-01-28T10:02:40.452Z,10.27
2019-01-28T10:03:43.803Z,10.23
2019-01-28T10:04:47.091Z,11.27
2019-01-28T10:05:50.506Z,11.00
2019-01-28T10:06:53.900Z,9.90
2019-01-28T10:07:57.249Z,9.43
2019-01-28T10:09:00.526Z,8.67
2019-01-28T10:10:05.708Z,9.63
2019-01-28T10:11:09.183Z,10.53
2019-01-28T10:12:12.538Z,10.27
2019-01-28T10:13:17.110Z,9.90
2019-01-28T10:14:20.434Z,10.03
2019-01-28T10:15:28.789Z,10.53
2019-01-28T10:16:30.278Z,9.57
2019-01-28T10:17:33.578Z,12.67
2019-01-28T10:18:41.862Z,11.00
2019-01-28T10:19:43.879Z,8.70
2019-01-28T10:20:47.703Z,10.83
2019-01-28T10:21:50.992Z,12.50
2019-01-28T10:22:54.321Z,10.20
2019-01-28T10:23:57.596Z,9.77
2019-01-28T10:25:01.788Z,11.03
2019-01-28T10:26:05.548Z,12.10
2019-01-28T10:27:08.846Z,10.00
2019-01-28T10:28:12.180Z,17.03
2019-01-28T10:29:15.536Z,12.10
2019-01-28T10:30:27.100Z,12.00
2019-01-28T10:31:30.385Z,10.63
2019-01-28T10:32:36.237Z,12.57
2019-01-28T10:33:38.723Z,10.07
2019-01-28T10:34:42.010Z,9.20
2019-01-28T10:35:45.300Z,9.63
2019-01-28T10:36:48.590Z,9.57
2019-01-28T10:37:51.877Z,7.53
2019-01-28T10:38:55.256Z,8.67
2019-01-28T10:39:58.561Z,7.53
2019-01-28T10:41:01.845Z,8.37
2019-01-28T10:42:09.723Z,12.37
2019-01-28T10:43:10.271Z,12.60
2019-01-28T10:44:13.570Z,10.93
2019-01-28T10:45:17.234Z,14.77
2019-01-28T10:46:20.511Z,17.90
2019-01-28T10:47:23.903Z,14.10
2019-01-28T10:48:27.209Z,17.77
2019-01-28T10:49:30.568Z,13.07
2019-01-28T10:50:33.963Z,11.93
2019-01-28T10:51:37.626Z,12.03
2019-01-28T10:52:40.928Z,10.57
2019-01-28T10:53:44.216Z,9.37
2019-01-28T10:54:47.621Z,8.13
2019-01-28T10:55:50.971Z,6.33
2019-01-28T10:56:54.252Z,6.23
2019-01-28T10:57:57.771Z,7.20
2019-01-28T10:59:01.044Z,7.53
2019-01-28T11:00:11.542Z,7.67
2019-01-28T11:01:12.637Z,9.20
2019-01-28T11:02:15.924Z,7.47
2019-01-28T11:03:19.552Z,6.60
2019-01-28T11:04:22.847Z,7.13
2019-01-28T11:05:26.165Z,6.60
2019-01-28T11:06:29.449Z,6.83
2019-01-28T11:07:32.736Z,7.23
2019-01-28T11:08:36.017Z,6.43
2019-01-28T11:09:39.413Z,7.17
2019-01-28T11:10:42.762Z,7.20
2019-01-28T11:11:46.103Z,6.40
2019-01-28T11:12:49.462Z,7.33
2019-01-28T11:13:52.880Z,7.93
2019-01-28T11:14:56.264Z,8.07
2019-01-28T11:15:59.654Z,7.30
2019-01-28T11:17:03.018Z,7.10
2019-01-28T11:18:09.656Z,8.67
2019-01-28T11:19:13.037Z,6.77
2019-01-28T11:20:17.222Z,6.20
2019-01-28T11:21:20.551Z,7.73
2019-01-28T11:22:23.948Z,7.20
2019-01-28T11:23:27.264Z,7.10
2019-01-28T11:24:30.639Z,7.60
2019-01-28T11:25:33.959Z,6.90
2019-01-28T11:26:37.269Z,6.70
2019-01-28T11:27:40.654Z,7.70
2019-01-28T11:28:44.858Z,6.63
2019-01-28T11:29:48.360Z,8.27
2019-01-28T11:30:55.465Z,8.63
2019-01-28T11:31:59.243Z,8.97
2019-01-28T11:33:02.526Z,9.97
2019-01-28T11:34:05.813Z,10.20
2019-01-28T11:35:09.206Z,9.37
2019-01-28T11:36:12.628Z,10.87
2019-01-28T11:37:16.401Z,12.27
2019-01-28T11:38:20.668Z,7.50
2019-01-28T11:39:24.102Z,10.27
2019-01-28T11:40:27.359Z,8.97
2019-01-28T11:41:30.821Z,7.57
2019-01-28T11:42:34.376Z,6.60
2019-01-28T11:43:37.809Z,6.93
2019-01-28T11:44:41.058Z,7.80
2019-01-28T11:45:59.621Z,7.13
2019-01-28T11:47:03.060Z,6.33
2019-01-28T11:48:06.920Z,8.03
2019-01-28T11:49:10.299Z,7.03
2019-01-28T11:50:15.979Z,7.80
2019-01-28T11:51:19.305Z,6.63
2019-01-28T11:52:22.724Z,5.50
2019-01-28T11:53:28.306Z,5.70
2019-01-28T11:54:31.591Z,6.77
2019-01-28T11:55:34.928Z,5.60
2019-01-28T11:56:38.238Z,6.77
2019-01-28T11:57:41.931Z,5.93
2019-01-28T11:58:45.358Z,7.50
2019-01-28T11:59:48.636Z,6.37
2019-01-28T12:00:59.229Z,7.37
2019-01-28T12:02:02.569Z,7.20
2019-01-28T12:03:05.827Z,6.00
2019-01-28T12:04:09.183Z,7.23
2019-01-28T12:05:12.473Z,5.83
2019-01-28T12:06:15.843Z,6.67
2019-01-28T12:07:19.162Z,10.13
2019-01-28T12:08:22.859Z,7.87
2019-01-28T12:09:26.443Z,6.30
2019-01-28T12:10:29.791Z,5.50
2019-01-28T12:11:33.079Z,6.23
2019-01-28T12:12:36.397Z,5.50
2019-01-28T12:13:39.703Z,5.10
2019-01-28T12:14:42.966Z,6.07
2019-01-28T12:15:46.251Z,6.20
2019-01-28T12:16:49.836Z,6.43
2019-01-28T12:17:53.152Z,6.70
2019-01-28T12:18:56.503Z,6.40
2019-01-28T12:19:59.889Z,6.27
2019-01-28T12:21:03.209Z,6.63
2019-01-28T12:22:06.904Z,6.90
2019-01-28T12:23:10.231Z,13.23
2019-01-28T12:24:13.674Z,6.13
2019-01-28T12:25:17.436Z,6.80
2019-01-28T12:26:20.737Z,6.30
2019-01-28T12:27:24.013Z,6.83
2019-01-28T12:28:27.328Z,7.17
2019-01-28T12:29:30.981Z,7.23
2019-01-28T12:30:34.279Z,7.57
2019-01-28T12:31:37.560Z,6.00
2019-01-28T12:32:41.178Z,5.53
2019-01-28T12:33:44.507Z,6.93
2019-01-28T12:34:47.780Z,7.23
2019-01-28T12:35:51.074Z,9.40
2019-01-28T12:36:54.351Z,6.07
2019-01-28T12:37:58.004Z,6.30
2019-01-28T12:39:01.335Z,5.63
2019-01-28T12:40:07.860Z,7.03
2019-01-28T12:41:17.332Z,6.70
2019-01-28T12:42:16.185Z,7.10
2019-01-28T12:43:19.621Z,7.50
2019-01-28T12:44:22.944Z,6.67
2019-01-28T12:45:27.973Z,6.63
2019-01-28T12:46:31.252Z,6.67
2019-01-28T12:47:34.546Z,8.43
2019-01-28T12:48:37.828Z,8.37
2019-01-28T12:49:41.138Z,7.53
2019-01-28T12:50:44.421Z,8.03
2019-01-28T12:51:47.792Z,6.60
2019-01-28T12:52:51.055Z,6.80
2019-01-28T12:53:54.335Z,6.90
2019-01-28T12:54:57.650Z,5.97
2019-01-28T12:56:00.934Z,7.93
2019-01-28T12:57:04.220Z,7.80
2019-01-28T12:58:07.510Z,7.53
2019-01-28T12:59:10.784Z,6.10
2019-01-28T13:00:23.611Z,6.90
2019-01-28T13:01:27.011Z,6.97
2019-01-28T13:02:30.313Z,8.63
2019-01-28T13:03:33.609Z,6.23
2019-01-28T13:04:42.083Z,7.40
2019-01-28T13:05:42.699Z,9.57
2019-01-28T13:06:45.990Z,10.27
2019-01-28T13:07:49.346Z,8.90
2019-01-28T13:08:52.619Z,8.63
2019-01-28T13:09:55.909Z,10.50
2019-01-28T13:10:59.232Z,7.97
2019-01-28T13:12:02.527Z,7.63
2019-01-28T13:13:05.873Z,6.50
2019-01-28T13:14:10.203Z,6.83
2019-01-28T13:15:21.832Z,7.13
2019-01-28T13:16:25.152Z,7.20
2019-01-28T13:17:28.584Z,8.00
2019-01-28T13:18:32.024Z,7.67
2019-01-28T13:19:35.301Z,8.30
2019-01-28T13:20:40.288Z,8.10
2019-01-28T13:21:43.857Z,9.57
2019-01-28T13:22:47.148Z,11.17
2019-01-28T13:23:50.508Z,12.83
2019-01-28T13:24:53.791Z,8.77
2019-01-28T13:25:57.082Z,8.27
2019-01-28T13:27:00.394Z,8.63
2019-01-28T13:28:03.764Z,7.53
2019-01-28T13:29:07.095Z,8.07
2019-01-28T13:30:16.538Z,8.23
2019-01-28T13:31:19.960Z,8.53
2019-01-28T13:32:23.287Z,11.27
2019-01-28T13:33:26.590Z,12.73
2019-01-28T13:34:29.950Z,11.23
2019-01-28T13:35:33.303Z,11.87
2019-01-28T13:36:36.967Z,11.00
2019-01-28T13:37:40.415Z,9.13
2019-01-28T13:38:43.771Z,10.10
2019-01-28T13:39:47.159Z,9.63
2019-01-28T13:40:50.506Z,10.10
2019-01-28T13:41:53.859Z,9.70
2019-01-28T13:42:57.353Z,9.40
2019-01-28T13:44:00.633Z,8.87
2019-01-28T13:45:05.798Z,11.87